Sunday, September 21, 2014

  Over 45,111,151 pages visited!

GMT:
20:07
PACIFIC:
1:07:01 PM
MOUNTAIN:
2:07:01 PM

CENTRAL:
3:07:01 PM

EASTERN:
4:07:01 PM
ATLANTIC:
5:07:01 PM
NEWFOUNDLAND:
5:37:01 PM
 

 


Watches/Warnings
Current Conditions
Radar/Satellite
Lightning Images


Current Weather Conditions For TORONTO PEARSON,ON

 


A Few Clouds
 

Temperature: 24C / 75F
Dew Point: 12 C / 54F
Humidity: 47 %
Pressure: 1000.8 mbs (29.55 inches)
Visibility: 24.1 kms (15 SM)
Wind Direction: WSW (260)
Wind Speed: 31.5 Km/h (19.6 MPH)
Max Wind Gust: No Gusts
Humidex: 26C
WindChill: N/A
    

Observation Information

Date/Time: Sunday, September 21, 2014 @ 19:00Z
Local Time:
Metar Coded: CYYZ 211900Z 26017KT 15SM SCT042 24/12 A2956 RMK CU3 SLP008 DENSITY ALT 2100FT

 

 

                   1997-2014 The Ontario Weather Page